sensor_id;sensor_type;location;lat;lon;timestamp;pressure;altitude;pressure_sealevel;temperature;humidity
17450;BME280;8842;51.244;7.102;2023-02-12T00:09:55;101550.16;;;7.81;100.00
17450;BME280;8842;51.244;7.102;2023-02-12T00:20:11;101555.41;;;7.82;100.00
17450;BME280;8842;51.244;7.102;2023-02-12T00:30:26;101550.27;;;7.78;100.00
17450;BME280;8842;51.244;7.102;2023-02-12T00:45:53;101542.33;;;7.78;100.00
17450;BME280;8842;51.244;7.102;2023-02-12T00:56:08;101543.50;;;7.69;100.00
17450;BME280;8842;51.244;7.102;2023-02-12T01:06:24;101546.53;;;7.70;100.00
17450;BME280;8842;51.244;7.102;2023-02-12T01:21:52;101540.33;;;7.71;100.00
17450;BME280;8842;51.244;7.102;2023-02-12T01:32:07;101533.27;;;7.72;100.00
17450;BME280;8842;51.244;7.102;2023-02-12T01:42:23;101539.97;;;7.69;100.00
17450;BME280;8842;51.244;7.102;2023-02-12T01:52:40;101542.92;;;7.73;100.00
17450;BME280;8842;51.244;7.102;2023-02-12T02:02:59;101526.75;;;7.69;100.00
17450;BME280;8842;51.244;7.102;2023-02-12T02:13:15;101533.02;;;7.66;100.00
17450;BME280;8842;51.244;7.102;2023-02-12T02:24:48;101527.72;;;7.66;100.00
17450;BME280;8842;51.244;7.102;2023-02-12T02:41:02;101526.95;;;7.63;100.00
17450;BME280;8842;51.244;7.102;2023-02-12T02:56:37;101520.91;;;7.59;100.00
17450;BME280;8842;51.244;7.102;2023-02-12T03:06:55;101522.05;;;7.51;100.00
17450;BME280;8842;51.244;7.102;2023-02-12T03:17:17;101515.13;;;7.47;100.00
17450;BME280;8842;51.244;7.102;2023-02-12T03:22:25;101522.42;;;7.39;100.00
17450;BME280;8842;51.244;7.102;2023-02-12T03:32:47;101507.73;;;7.43;100.00
17450;BME280;8842;51.244;7.102;2023-02-12T03:48:22;101508.91;;;7.48;100.00
17450;BME280;8842;51.244;7.102;2023-02-12T03:58:40;101505.23;;;7.39;100.00
17450;BME280;8842;51.244;7.102;2023-02-12T04:14:21;101507.59;;;7.48;100.00
17450;BME280;8842;51.244;7.102;2023-02-12T04:19:24;101510.28;;;7.46;100.00
17450;BME280;8842;51.244;7.102;2023-02-12T04:24:34;101525.80;;;7.44;100.00
17450;BME280;8842;51.244;7.102;2023-02-12T04:40:11;101538.09;;;7.45;100.00
17450;BME280;8842;51.244;7.102;2023-02-12T04:55:36;101550.52;;;7.43;100.00
17450;BME280;8842;51.244;7.102;2023-02-12T05:05:51;101557.08;;;7.44;100.00
17450;BME280;8842;51.244;7.102;2023-02-12T05:16:07;101551.61;;;7.50;100.00
17450;BME280;8842;51.244;7.102;2023-02-12T05:26:23;101561.66;;;7.52;100.00
17450;BME280;8842;51.244;7.102;2023-02-12T05:36:39;101568.10;;;7.44;100.00
17450;BME280;8842;51.244;7.102;2023-02-12T05:52:06;101562.93;;;7.54;100.00
17450;BME280;8842;51.244;7.102;2023-02-12T06:02:21;101583.10;;;7.58;100.00
17450;BME280;8842;51.244;7.102;2023-02-12T06:12:36;101578.67;;;7.44;100.00
17450;BME280;8842;51.244;7.102;2023-02-12T06:22:52;101575.41;;;7.50;100.00
17450;BME280;8842;51.244;7.102;2023-02-12T06:43:31;101587.25;;;7.52;100.00
17450;BME280;8842;51.244;7.102;2023-02-12T07:09:26;101594.23;;;7.40;100.00
17450;BME280;8842;51.244;7.102;2023-02-12T07:30:08;101604.14;;;7.46;100.00
17450;BME280;8842;51.244;7.102;2023-02-12T07:40:23;101613.91;;;7.59;100.00
17450;BME280;8842;51.244;7.102;2023-02-12T07:55:51;101631.66;;;7.70;100.00
17450;BME280;8842;51.244;7.102;2023-02-12T08:06:08;101630.70;;;7.85;100.00
17450;BME280;8842;51.244;7.102;2023-02-12T08:16:41;101639.45;;;8.02;100.00
17450;BME280;8842;51.244;7.102;2023-02-12T08:21:47;101636.40;;;8.01;100.00
17450;BME280;8842;51.244;7.102;2023-02-12T08:26:52;101638.72;;;8.10;100.00
17450;BME280;8842;51.244;7.102;2023-02-12T08:37:08;101655.08;;;8.37;100.00
17450;BME280;8842;51.244;7.102;2023-02-12T08:47:27;101669.73;;;8.47;100.00
17450;BME280;8842;51.244;7.102;2023-02-12T08:57:43;101663.43;;;8.64;100.00
17450;BME280;8842;51.244;7.102;2023-02-12T09:08:00;101665.88;;;8.70;100.00
17450;BME280;8842;51.244;7.102;2023-02-12T09:18:16;101660.58;;;8.70;100.00
17450;BME280;8842;51.244;7.102;2023-02-12T09:23:20;101668.66;;;8.79;100.00
17450;BME280;8842;51.244;7.102;2023-02-12T09:33:36;101679.72;;;8.65;100.00
17450;BME280;8842;51.244;7.102;2023-02-12T09:43:55;101679.50;;;8.97;100.00
17450;BME280;8842;51.244;7.102;2023-02-12T09:54:14;101672.67;;;9.03;100.00
17450;BME280;8842;51.244;7.102;2023-02-12T09:59:23;101675.71;;;9.04;100.00
17450;BME280;8842;51.244;7.102;2023-02-12T10:04:27;101682.46;;;9.13;100.00
17450;BME280;8842;51.244;7.102;2023-02-12T10:09:40;101683.80;;;9.24;100.00
17450;BME280;8842;51.244;7.102;2023-02-12T10:25:47;101689.84;;;9.75;100.00
17450;BME280;8842;51.244;7.102;2023-02-12T10:30:54;101688.34;;;9.80;100.00
17450;BME280;8842;51.244;7.102;2023-02-12T10:41:16;101683.76;;;10.18;100.00
17450;BME280;8842;51.244;7.102;2023-02-12T10:51:44;101682.33;;;10.31;100.00
17450;BME280;8842;51.244;7.102;2023-02-12T11:02:01;101677.15;;;10.06;100.00
17450;BME280;8842;51.244;7.102;2023-02-12T11:07:06;101672.81;;;10.16;100.00
17450;BME280;8842;51.244;7.102;2023-02-12T11:17:37;101675.73;;;10.20;100.00
17450;BME280;8842;51.244;7.102;2023-02-12T11:28:14;101660.48;;;10.25;100.00
17450;BME280;8842;51.244;7.102;2023-02-12T11:43:50;101645.20;;;10.30;100.00
17450;BME280;8842;51.244;7.102;2023-02-12T11:54:05;101635.83;;;10.21;100.00
17450;BME280;8842;51.244;7.102;2023-02-12T12:04:31;101635.75;;;10.13;100.00
17450;BME280;8842;51.244;7.102;2023-02-12T12:09:39;101638.34;;;10.02;100.00
17450;BME280;8842;51.244;7.102;2023-02-12T12:20:02;101628.41;;;10.19;100.00
17450;BME280;8842;51.244;7.102;2023-02-12T12:30:28;101617.99;;;10.25;100.00
17450;BME280;8842;51.244;7.102;2023-02-12T12:40:54;101598.66;;;10.21;100.00
17450;BME280;8842;51.244;7.102;2023-02-12T12:51:21;101580.42;;;10.24;100.00
17450;BME280;8842;51.244;7.102;2023-02-12T12:56:39;101588.72;;;10.26;100.00
17450;BME280;8842;51.244;7.102;2023-02-12T13:07:18;101566.34;;;10.32;100.00
17450;BME280;8842;51.244;7.102;2023-02-12T13:23:00;101553.25;;;10.27;100.00
17450;BME280;8842;51.244;7.102;2023-02-12T13:33:22;101554.19;;;10.46;100.00
17450;BME280;8842;51.244;7.102;2023-02-12T13:43:48;101537.58;;;10.61;100.00
17450;BME280;8842;51.244;7.102;2023-02-12T14:04:55;101519.98;;;10.39;100.00
17450;BME280;8842;51.244;7.102;2023-02-12T14:20:38;101524.97;;;10.36;100.00
17450;BME280;8842;51.244;7.102;2023-02-12T14:53:33;101533.78;;;10.67;100.00
17450;BME280;8842;51.244;7.102;2023-02-12T15:03:54;101516.13;;;10.36;100.00
17450;BME280;8842;51.244;7.102;2023-02-12T15:19:39;101522.11;;;10.41;100.00
17450;BME280;8842;51.244;7.102;2023-02-12T15:29:57;101509.77;;;10.40;100.00
17450;BME280;8842;51.244;7.102;2023-02-12T15:40:15;101495.55;;;10.41;100.00
17450;BME280;8842;51.244;7.102;2023-02-12T16:00:59;101496.31;;;10.02;100.00
17450;BME280;8842;51.244;7.102;2023-02-12T16:11:18;101492.45;;;9.99;100.00
17450;BME280;8842;51.244;7.102;2023-02-12T16:21:37;101491.06;;;10.01;100.00
17450;BME280;8842;51.244;7.102;2023-02-12T16:31:57;101489.51;;;9.95;100.00
17450;BME280;8842;51.244;7.102;2023-02-12T16:42:15;101491.25;;;9.86;100.00
17450;BME280;8842;51.244;7.102;2023-02-12T16:52:38;101493.34;;;9.78;100.00
17450;BME280;8842;51.244;7.102;2023-02-12T17:02:56;101498.78;;;9.75;100.00
17450;BME280;8842;51.244;7.102;2023-02-12T17:13:11;101501.95;;;9.73;100.00
17450;BME280;8842;51.244;7.102;2023-02-12T17:23:27;101510.58;;;9.68;100.00
17450;BME280;8842;51.244;7.102;2023-02-12T17:33:42;101512.27;;;9.59;100.00
17450;BME280;8842;51.244;7.102;2023-02-12T17:44:00;101526.17;;;9.54;100.00
17450;BME280;8842;51.244;7.102;2023-02-12T17:54:16;101525.38;;;9.41;100.00
17450;BME280;8842;51.244;7.102;2023-02-12T18:04:33;101526.83;;;9.38;100.00
17450;BME280;8842;51.244;7.102;2023-02-12T18:14:49;101531.29;;;9.37;100.00
17450;BME280;8842;51.244;7.102;2023-02-12T18:19:54;101534.30;;;9.28;100.00
17450;BME280;8842;51.244;7.102;2023-02-12T18:30:11;101530.20;;;9.31;100.00
17450;BME280;8842;51.244;7.102;2023-02-12T18:40:28;101524.14;;;9.28;100.00
17450;BME280;8842;51.244;7.102;2023-02-12T18:50:43;101530.12;;;9.21;100.00
17450;BME280;8842;51.244;7.102;2023-02-12T19:01:11;101524.04;;;9.19;100.00
17450;BME280;8842;51.244;7.102;2023-02-12T19:06:15;101528.42;;;9.09;100.00
17450;BME280;8842;51.244;7.102;2023-02-12T19:16:30;101521.97;;;9.04;100.00
17450;BME280;8842;51.244;7.102;2023-02-12T19:26:51;101522.30;;;9.07;100.00
17450;BME280;8842;51.244;7.102;2023-02-12T19:31:55;101527.84;;;9.01;100.00
17450;BME280;8842;51.244;7.102;2023-02-12T19:42:14;101523.30;;;9.04;100.00
17450;BME280;8842;51.244;7.102;2023-02-12T19:52:31;101518.06;;;8.91;100.00
17450;BME280;8842;51.244;7.102;2023-02-12T20:02:46;101518.95;;;8.90;100.00
17450;BME280;8842;51.244;7.102;2023-02-12T20:07:50;101519.13;;;8.86;100.00
17450;BME280;8842;51.244;7.102;2023-02-12T20:18:09;101509.68;;;8.90;100.00
17450;BME280;8842;51.244;7.102;2023-02-12T20:28:25;101514.08;;;8.91;100.00
17450;BME280;8842;51.244;7.102;2023-02-12T20:33:29;101511.13;;;8.87;100.00
17450;BME280;8842;51.244;7.102;2023-02-12T20:43:45;101512.05;;;8.98;100.00
17450;BME280;8842;51.244;7.102;2023-02-12T20:54:02;101514.81;;;8.95;100.00
17450;BME280;8842;51.244;7.102;2023-02-12T21:04:18;101503.94;;;8.91;100.00
17450;BME280;8842;51.244;7.102;2023-02-12T21:14:33;101503.42;;;8.93;100.00
17450;BME280;8842;51.244;7.102;2023-02-12T21:30:01;101504.91;;;9.00;100.00
17450;BME280;8842;51.244;7.102;2023-02-12T21:40:22;101505.08;;;9.07;100.00
17450;BME280;8842;51.244;7.102;2023-02-12T21:50:38;101504.34;;;9.03;100.00
17450;BME280;8842;51.244;7.102;2023-02-12T22:00:53;101507.27;;;9.07;100.00
17450;BME280;8842;51.244;7.102;2023-02-12T22:11:12;101508.38;;;9.02;100.00
17450;BME280;8842;51.244;7.102;2023-02-12T22:21:31;101503.36;;;9.06;100.00
17450;BME280;8842;51.244;7.102;2023-02-12T22:31:47;101505.56;;;9.06;100.00
17450;BME280;8842;51.244;7.102;2023-02-12T22:42:03;101505.08;;;9.07;100.00
17450;BME280;8842;51.244;7.102;2023-02-12T22:52:19;101493.55;;;9.19;100.00
17450;BME280;8842;51.244;7.102;2023-02-12T23:02:34;101504.12;;;9.09;100.00
17450;BME280;8842;51.244;7.102;2023-02-12T23:12:49;101503.47;;;9.03;100.00
17450;BME280;8842;51.244;7.102;2023-02-12T23:28:16;101511.02;;;9.13;100.00
17450;BME280;8842;51.244;7.102;2023-02-12T23:43:43;101504.80;;;9.03;100.00
